Time;durP1;ratioP1;P1;durP2;ratioP2;P2;SDS_P1;SDS_P2;PMS_P1;PMS_P2;Temp;Humidity;BMP_temperature;BMP_pressure;BME280_temperature;BME280_humidity;BME280_pressure;Samples;Min_cycle;Max_cycle;Signal;HPM_P1;HPM_P2
2021/05/14 00:01:34;;;;;;;;;;;;;;;16.27;63.59;100031.38;5034769;28;96740;-74
2021/05/14 00:04:00;;;;;;;;;;;;;;;16.61;62.73;100027.19;5033346;27;96968;-74
2021/05/14 00:06:26;;;;;;;;;;;;;;;16.34;63.46;100028.16;5033462;27;99265;-73
2021/05/14 00:08:52;;;;;;;;;;;;;;;16.73;62.72;100031.66;5033616;27;98168;-74
2021/05/14 00:11:18;;;;;;;;;;;;;;;16.58;63.11;100025.56;5034786;27;96752;-75
2021/05/14 00:13:43;;;;;;;;;;;;;;;16.64;63.17;100030.50;5033778;27;98370;-74
2021/05/14 00:16:09;;;;;;;;;;;;;;;16.31;63.72;100035.53;5032997;28;101375;-74
2021/05/14 00:18:35;;;;;;;;;;;;;;;16.43;63.71;100024.00;5030409;27;98964;-73
2021/05/14 00:21:02;;;;;;;;;;;;;;;16.35;63.84;100035.19;5033234;28;96865;-74
2021/05/14 00:23:27;;;;;;;;;;;;;;;16.31;64.03;100031.06;5032658;27;96905;-74
2021/05/14 00:25:53;;;;;;;;;;;;;;;16.29;64.15;100027.63;5033795;27;98763;-74
2021/05/14 00:28:19;;;;;;;;;;;;;;;16.67;63.15;100024.94;5033434;27;98889;-74
2021/05/14 00:30:45;;;;;;;;;;;;;;;16.52;63.54;100026.03;5034092;27;97335;-73
2021/05/14 00:33:12;;;;;;;;;;;;;;;16.36;63.83;100030.72;5033717;27;96750;-74
2021/05/14 00:35:38;;;;;;;;;;;;;;;16.09;64.61;100022.84;5034065;27;99366;-74
2021/05/14 00:38:04;;;;;;;;;;;;;;;16.35;64.00;100021.00;5033283;27;98904;-74
2021/05/14 00:40:32;;;;;;;;;;;;;;;16.41;63.97;100019.75;5033346;27;96694;-74
2021/05/14 00:42:57;;;;;;;;;;;;;;;16.33;64.11;100023.81;5033497;28;96969;-74
2021/05/14 00:45:23;;;;;;;;;;;;;;;16.32;64.01;100021.25;5034375;27;98837;-74
2021/05/14 00:47:49;;;;;;;;;;;;;;;16.30;63.98;100024.00;5033489;27;98926;-74
2021/05/14 00:50:15;;;;;;;;;;;;;;;16.15;64.69;100016.22;5034396;27;97192;-74
2021/05/14 00:52:41;;;;;;;;;;;;;;;16.52;63.62;100014.50;5033099;27;98569;-75
2021/05/14 00:55:08;;;;;;;;;;;;;;;16.01;65.70;100011.88;5033974;27;99274;-74
2021/05/14 00:57:35;;;;;;;;;;;;;;;15.97;65.61;100018.38;5032249;27;98770;-74
2021/05/14 01:00:01;;;;;;;;;;;;;;;16.11;64.82;100020.06;5034349;27;96927;-72
2021/05/14 01:02:28;;;;;;;;;;;;;;;15.93;65.57;100020.41;5034040;27;97075;-73
2021/05/14 01:04:53;;;;;;;;;;;;;;;16.56;63.64;100019.50;5033289;28;98890;-73
2021/05/14 01:07:19;;;;;;;;;;;;;;;16.45;63.59;100023.91;5032173;28;98844;-73
2021/05/14 01:09:45;;;;;;;;;;;;;;;16.58;63.28;100022.91;5033734;28;97336;-73
2021/05/14 01:12:12;;;;;;;;;;;;;;;16.46;63.65;100021.13;5033811;28;97016;-73
2021/05/14 01:14:38;;;;;;;;;;;;;;;15.95;65.06;100018.47;5032813;27;99258;-74
2021/05/14 01:17:04;;;;;;;;;;;;;;;16.22;64.43;100022.84;5032403;27;98549;-73
2021/05/14 01:19:34;;;;;;;;;;;;;;;16.46;63.49;100025.59;5035299;27;97124;-75
2021/05/14 01:22:03;;;;;;;;;;;;;;;16.30;63.96;100025.81;5031529;28;97407;-73
2021/05/14 01:24:36;;;;;;;;;;;;;;;16.36;63.66;100028.06;5038361;27;98074;-72
2021/05/14 01:27:12;;;;;;;;;;;;;;;16.38;63.44;100028.81;5037753;27;99939;-72
2021/05/14 01:29:38;;;;;;;;;;;;;;;16.59;62.44;100021.09;5039097;27;96715;-73
2021/05/14 01:32:04;;;;;;;;;;;;;;;16.41;63.50;100023.25;5033809;27;96998;-73
2021/05/14 01:34:30;;;;;;;;;;;;;;;16.41;62.99;100015.25;5032610;27;98667;-73
2021/05/14 01:36:56;;;;;;;;;;;;;;;16.48;62.89;100011.19;5040914;27;98732;-73
2021/05/14 01:39:23;;;;;;;;;;;;;;;16.44;62.99;100014.19;5038330;27;97052;-74
2021/05/14 01:41:49;;;;;;;;;;;;;;;16.05;64.07;100004.50;5035036;27;96901;-74
2021/05/14 01:44:15;;;;;;;;;;;;;;;16.42;63.39;100006.28;5033236;27;99079;-73
2021/05/14 01:46:41;;;;;;;;;;;;;;;16.27;63.61;100008.25;5033295;27;98905;-73
2021/05/14 01:49:07;;;;;;;;;;;;;;;15.79;64.80;100003.66;5034875;27;96812;-73
2021/05/14 01:51:33;;;;;;;;;;;;;;;15.60;65.05;100004.06;5032957;27;97198;-74
2021/05/14 01:53:59;;;;;;;;;;;;;;;15.72;65.62;99997.91;5032984;27;99245;-73
2021/05/14 01:56:25;;;;;;;;;;;;;;;15.44;66.24;100003.34;5032896;28;99569;-74
2021/05/14 01:58:52;;;;;;;;;;;;;;;15.85;65.00;99998.75;5034343;27;97016;-74
2021/05/14 02:01:19;;;;;;;;;;;;;;;15.69;65.30;100000.75;5033672;27;96743;-75
2021/05/14 02:03:45;;;;;;;;;;;;;;;15.77;64.86;99993.09;5034319;27;98886;-73
2021/05/14 02:06:10;;;;;;;;;;;;;;;16.13;63.96;99995.03;5033135;27;98163;-75
2021/05/14 02:08:37;;;;;;;;;;;;;;;16.25;63.49;99996.84;5033786;28;96778;-73
2021/05/14 02:11:03;;;;;;;;;;;;;;;16.19;63.53;99999.94;5033279;27;96923;-73
2021/05/14 02:13:30;;;;;;;;;;;;;;;16.02;63.86;99994.91;5033808;27;99099;-73
2021/05/14 02:15:56;;;;;;;;;;;;;;;16.27;63.12;99999.41;5033871;27;99438;-73
2021/05/14 02:18:22;;;;;;;;;;;;;;;16.26;63.40;99995.88;5033090;27;97540;-73
2021/05/14 02:20:48;;;;;;;;;;;;;;;15.94;64.00;99999.94;5034239;27;96864;-74
2021/05/14 02:23:14;;;;;;;;;;;;;;;16.02;63.80;99994.91;5032774;27;98894;-73
2021/05/14 02:25:39;;;;;;;;;;;;;;;15.81;64.29;99999.09;5032865;27;98712;-73
2021/05/14 02:28:07;;;;;;;;;;;;;;;15.49;65.28;99999.41;5035746;27;97142;-73
2021/05/14 02:30:34;;;;;;;;;;;;;;;15.46;65.30;99999.63;5038022;27;96907;-74
2021/05/14 02:33:00;;;;;;;;;;;;;;;15.76;64.66;99995.84;5037827;27;98994;-73
2021/05/14 02:35:26;;;;;;;;;;;;;;;15.71;64.41;100001.50;5032421;27;98960;-73
2021/05/14 02:37:52;;;;;;;;;;;;;;;16.01;63.69;99998.56;5032224;27;96738;-73
2021/05/14 02:40:18;;;;;;;;;;;;;;;15.88;63.63;99997.72;5033976;27;96935;-73
2021/05/14 02:42:44;;;;;;;;;;;;;;;15.78;63.91;99999.28;5032564;27;99273;-74
2021/05/14 02:45:10;;;;;;;;;;;;;;;15.84;63.91;100001.53;5033461;27;98791;-74
2021/05/14 02:47:37;;;;;;;;;;;;;;;16.03;63.22;99995.75;5032513;28;96891;-74
2021/05/14 02:50:10;;;;;;;;;;;;;;;16.40;62.36;99992.22;5033894;27;96981;-76
2021/05/14 02:52:36;;;;;;;;;;;;;;;16.18;62.26;99995.56;5032584;27;98889;-75
2021/05/14 02:55:02;;;;;;;;;;;;;;;15.74;63.77;100001.31;5033367;27;99202;-75
2021/05/14 02:57:27;;;;;;;;;;;;;;;16.17;62.98;100007.19;5031424;27;97635;-75
2021/05/14 02:59:53;;;;;;;;;;;;;;;16.47;62.09;100003.31;5032610;27;97135;-74
2021/05/14 03:02:19;;;;;;;;;;;;;;;16.19;62.37;100004.41;5032036;27;99160;-75
2021/05/14 03:04:45;;;;;;;;;;;;;;;16.19;62.36;100010.59;5038518;27;97677;-74
2021/05/14 03:07:11;;;;;;;;;;;;;;;15.38;64.11;100003.75;5038829;28;96779;-75
2021/05/14 03:09:37;;;;;;;;;;;;;;;15.86;63.38;100000.47;5040080;27;96798;-74
2021/05/14 03:12:03;;;;;;;;;;;;;;;15.94;63.16;100002.59;5039076;27;99304;-74
2021/05/14 03:14:29;;;;;;;;;;;;;;;16.23;62.23;99993.41;5040159;27;98896;-74
2021/05/14 03:16:55;;;;;;;;;;;;;;;16.46;61.48;99998.94;5040235;27;97145;-74
2021/05/14 03:19:20;;;;;;;;;;;;;;;16.16;62.34;100005.47;5049578;27;96732;-72
2021/05/14 03:21:47;;;;;;;;;;;;;;;16.39;61.66;100005.66;5040491;27;98805;-73
2021/05/14 03:24:13;;;;;;;;;;;;;;;16.16;62.18;100002.81;5038156;27;98218;-73
2021/05/14 03:26:38;;;;;;;;;;;;;;;16.12;62.24;100001.31;5038957;27;97266;-73
2021/05/14 03:29:04;;;;;;;;;;;;;;;16.04;62.68;100008.13;5039689;27;96787;-73
2021/05/14 03:31:30;;;;;;;;;;;;;;;15.89;62.79;100000.25;5039562;27;98930;-73
2021/05/14 03:33:56;;;;;;;;;;;;;;;16.11;62.22;100004.09;5038416;27;98988;-73
2021/05/14 03:36:22;;;;;;;;;;;;;;;16.19;62.24;100002.59;5038513;27;96881;-74
2021/05/14 03:38:49;;;;;;;;;;;;;;;15.86;62.61;100000.47;5038974;27;96848;-73
2021/05/14 03:41:30;;;;;;;;;;;;;;;15.82;62.90;100008.75;5039466;27;98931;-73
2021/05/14 03:43:56;;;;;;;;;;;;;;;16.08;62.21;100007.81;5038620;28;98874;-73
2021/05/14 03:46:22;;;;;;;;;;;;;;;16.32;61.44;100007.91;5037933;27;97156;-74
2021/05/14 03:48:48;;;;;;;;;;;;;;;16.26;61.38;100011.88;5037677;27;98897;-73
2021/05/14 03:51:14;;;;;;;;;;;;;;;15.95;62.26;100009.63;5039377;28;99123;-74
2021/05/14 03:53:40;;;;;;;;;;;;;;;16.15;62.09;100011.75;5038445;27;98800;-74
2021/05/14 03:56:07;;;;;;;;;;;;;;;15.95;62.48;100012.28;5038207;27;97786;-73
2021/05/14 03:58:32;;;;;;;;;;;;;;;15.12;64.97;100013.47;5038888;28;96851;-73
2021/05/14 04:00:58;;;;;;;;;;;;;;;15.65;63.51;100007.25;5039259;27;97761;-74
2021/05/14 04:03:24;;;;;;;;;;;;;;;15.74;62.68;100005.78;5038800;27;98897;-73
2021/05/14 04:05:50;;;;;;;;;;;;;;;15.64;63.35;100010.03;5038601;27;96817;-74
2021/05/14 04:08:16;;;;;;;;;;;;;;;15.85;62.76;100008.56;5039255;27;96993;-74
2021/05/14 04:11:05;;;;;;;;;;;;;;;16.25;61.94;100017.31;5037633;28;99425;-74
2021/05/14 04:16:16;;;;;;;;;;;;;;;16.07;62.30;100010.59;5031849;28;97927;-74
2021/05/14 04:18:42;;;;;;;;;;;;;;;16.38;61.65;100006.63;5033986;27;98114;-73
2021/05/14 04:21:08;;;;;;;;;;;;;;;16.39;61.66;100011.00;5034961;27;98815;-73
2021/05/14 04:23:34;;;;;;;;;;;;;;;16.20;61.87;100009.63;5034084;28;99252;-73
2021/05/14 04:26:00;;;;;;;;;;;;;;;15.85;62.66;100004.09;5033664;28;97226;-73
2021/05/14 04:28:25;;;;;;;;;;;;;;;15.90;63.03;100020.59;5034527;27;97872;-73
2021/05/14 04:30:52;;;;;;;;;;;;;;;15.86;62.87;100013.78;5028353;27;98853;-73
2021/05/14 04:33:18;;;;;;;;;;;;;;;16.13;61.79;100019.03;5032984;28;98938;-74
2021/05/14 04:35:43;;;;;;;;;;;;;;;16.41;61.37;100012.56;5031369;27;97056;-73
2021/05/14 04:38:09;;;;;;;;;;;;;;;16.13;62.11;100019.03;5028500;27;98454;-73
2021/05/14 04:40:35;;;;;;;;;;;;;;;16.27;61.94;100013.59;5034847;27;99064;-73
2021/05/14 04:43:01;;;;;;;;;;;;;;;16.50;61.19;100019.09;5034395;27;99000;-73
2021/05/14 04:45:27;;;;;;;;;;;;;;;16.20;62.14;100016.78;5034819;28;96823;-74
2021/05/14 04:47:53;;;;;;;;;;;;;;;15.94;63.00;100019.44;5030858;28;96920;-74
2021/05/14 04:50:19;;;;;;;;;;;;;;;15.59;64.33;100021.00;5032997;27;101688;-74
2021/05/14 04:52:45;;;;;;;;;;;;;;;15.00;65.44;100019.59;5035729;28;101241;-74
2021/05/14 04:55:11;;;;;;;;;;;;;;;15.32;65.03;100026.31;5034618;27;96676;-74
2021/05/14 04:57:37;;;;;;;;;;;;;;;15.70;63.35;100025.56;5034411;27;97264;-74
2021/05/14 05:00:03;;;;;;;;;;;;;;;15.75;63.58;100029.63;5033052;27;98872;-74
2021/05/14 05:02:29;;;;;;;;;;;;;;;16.01;62.32;100027.88;5036624;28;97630;-74
2021/05/14 05:04:56;;;;;;;;;;;;;;;15.88;62.67;100029.69;5032122;28;98039;-74
2021/05/14 05:07:22;;;;;;;;;;;;;;;15.79;62.72;100020.50;5031663;27;96964;-74
2021/05/14 05:09:47;;;;;;;;;;;;;;;15.93;62.63;100033.72;5033825;27;99257;-76
2021/05/14 05:12:13;;;;;;;;;;;;;;;15.97;62.62;100031.69;5028372;27;98837;-74
2021/05/14 05:14:40;;;;;;;;;;;;;;;16.08;62.17;100036.28;5034936;28;96830;-74
2021/05/14 05:17:06;;;;;;;;;;;;;;;16.02;62.17;100032.22;5031572;27;96878;-75
2021/05/14 05:19:32;;;;;;;;;;;;;;;16.03;62.08;100028.59;5033940;27;98965;-74
2021/05/14 05:21:58;;;;;;;;;;;;;;;16.22;62.06;100039.69;5033435;27;99091;-74
2021/05/14 05:24:24;;;;;;;;;;;;;;;16.02;62.43;100032.22;5032999;28;96908;-73
2021/05/14 05:26:50;;;;;;;;;;;;;;;16.41;61.52;100046.41;5030676;27;97910;-74
2021/05/14 05:29:16;;;;;;;;;;;;;;;16.01;62.54;100033.19;5033415;27;98891;-74
2021/05/14 05:31:42;;;;;;;;;;;;;;;15.71;63.49;100037.94;5033992;27;98808;-74
2021/05/14 05:34:08;;;;;;;;;;;;;;;15.95;62.57;100038.94;5034117;27;96984;-74
2021/05/14 05:36:34;;;;;;;;;;;;;;;15.84;63.62;100042.34;5033574;27;96860;-74
2021/05/14 05:39:01;;;;;;;;;;;;;;;15.26;64.63;100042.69;5033471;27;98969;-74
2021/05/14 05:41:27;;;;;;;;;;;;;;;15.59;64.13;100049.44;5033753;27;98846;-74
2021/05/14 05:43:52;;;;;;;;;;;;;;;16.00;62.75;100052.81;5034967;28;96671;-74
2021/05/14 05:46:19;;;;;;;;;;;;;;;16.09;62.35;100056.63;5032899;27;97705;-74
2021/05/14 05:48:46;;;;;;;;;;;;;;;16.22;62.35;100054.81;5032619;27;98995;-73
2021/05/14 05:51:12;;;;;;;;;;;;;;;15.96;62.41;100053.97;5033861;27;98622;-72
2021/05/14 05:53:38;;;;;;;;;;;;;;;16.29;61.70;100053.44;5037058;27;98350;-74
2021/05/14 05:56:05;;;;;;;;;;;;;;;16.32;61.76;100066.56;5037668;27;97522;-74
2021/05/14 05:58:32;;;;;;;;;;;;;;;16.26;61.48;100065.19;5037281;27;97699;-73
2021/05/14 06:00:57;;;;;;;;;;;;;;;16.42;61.07;100070.28;5037590;27;100501;-73
2021/05/14 06:03:24;;;;;;;;;;;;;;;16.56;60.64;100063.97;5038702;27;96989;-74
2021/05/14 06:05:50;;;;;;;;;;;;;;;16.40;60.59;100063.38;5036622;27;97275;-73
2021/05/14 06:08:15;;;;;;;;;;;;;;;16.66;60.30;100063.28;5034561;27;99249;-74
2021/05/14 06:10:42;;;;;;;;;;;;;;;16.70;59.91;100061.22;5033254;27;98867;-74
2021/05/14 06:13:09;;;;;;;;;;;;;;;16.84;59.62;100063.75;5033938;27;96821;-73
2021/05/14 06:15:35;;;;;;;;;;;;;;;16.42;60.95;100066.75;5033650;27;97313;-73
2021/05/14 06:18:01;;;;;;;;;;;;;;;15.92;62.23;100065.78;5041136;27;99527;-74
2021/05/14 06:20:28;;;;;;;;;;;;;;;16.40;61.27;100068.72;5038942;27;99105;-73
2021/05/14 06:22:55;;;;;;;;;;;;;;;16.60;60.36;100074.38;5034860;27;97407;-73
2021/05/14 06:25:21;;;;;;;;;;;;;;;15.99;61.91;100069.75;5029650;27;97128;-74
2021/05/14 06:27:46;;;;;;;;;;;;;;;16.13;62.19;100075.00;5026742;28;97878;-73
2021/05/14 06:30:14;;;;;;;;;;;;;;;16.57;61.03;100076.34;5033195;28;98904;-73
2021/05/14 06:32:40;;;;;;;;;;;;;;;15.92;62.04;100074.66;5041496;27;97330;-73
2021/05/14 06:35:07;;;;;;;;;;;;;;;15.52;63.08;100076.47;5040676;28;96840;-72
2021/05/14 06:37:37;;;;;;;;;;;;;;;15.52;63.37;100078.25;5039259;27;99151;-73
2021/05/14 06:40:03;;;;;;;;;;;;;;;15.57;62.88;100073.50;5029705;28;98731;-74
2021/05/14 06:42:29;;;;;;;;;;;;;;;15.30;63.93;100076.13;5025061;28;96814;-74
2021/05/14 06:44:56;;;;;;;;;;;;;;;15.03;64.47;100083.25;5035058;27;98555;-73
2021/05/14 06:47:22;;;;;;;;;;;;;;;15.62;62.95;100090.00;5035700;27;97854;-76
2021/05/14 06:49:48;;;;;;;;;;;;;;;15.63;62.62;100089.06;5029763;27;98108;-74
2021/05/14 06:52:14;;;;;;;;;;;;;;;15.89;61.81;100089.97;5050107;27;96788;-77
2021/05/14 06:54:41;;;;;;;;;;;;;;;16.09;61.06;100086.81;5045370;27;97023;-73
2021/05/14 06:57:07;;;;;;;;;;;;;;;15.98;61.41;100093.81;5043319;27;97820;-74
2021/05/14 06:59:34;;;;;;;;;;;;;;;16.33;60.38;100087.78;5037079;27;97994;-74
2021/05/14 07:02:00;;;;;;;;;;;;;;;15.79;60.98;100094.22;5031490;27;97059;-75
2021/05/14 07:04:27;;;;;;;;;;;;;;;15.81;61.07;100095.84;5025868;27;96781;-73
2021/05/14 07:06:53;;;;;;;;;;;;;;;15.79;61.09;100102.22;5026501;28;99564;-73
2021/05/14 07:09:19;;;;;;;;;;;;;;;15.57;61.75;100097.44;5025244;28;98732;-74
2021/05/14 07:11:45;;;;;;;;;;;;;;;15.75;60.85;100106.06;5027711;27;97257;-73
2021/05/14 07:14:11;;;;;;;;;;;;;;;15.79;60.66;100099.56;5029868;27;97069;-73
2021/05/14 07:16:37;;;;;;;;;;;;;;;15.80;61.56;100101.25;5028835;28;98987;-74
2021/05/14 07:19:03;;;;;;;;;;;;;;;15.86;60.72;100111.50;5031330;27;98638;-73
2021/05/14 07:21:29;;;;;;;;;;;;;;;15.85;60.29;100115.13;5031722;27;96843;-73
2021/05/14 07:23:55;;;;;;;;;;;;;;;15.75;60.80;100119.38;5030530;27;97071;-73
2021/05/14 07:26:21;;;;;;;;;;;;;;;15.53;60.64;100118.13;5029909;28;98889;-74
2021/05/14 07:28:47;;;;;;;;;;;;;;;15.27;62.13;100118.94;5031115;27;97828;-75
2021/05/14 07:31:13;;;;;;;;;;;;;;;15.62;61.73;100123.81;5023879;27;98173;-75
2021/05/14 07:33:40;;;;;;;;;;;;;;;15.84;60.82;100130.25;5020953;27;96983;-74
2021/05/14 07:36:06;;;;;;;;;;;;;;;16.21;59.68;100117.94;5032032;27;99564;-74
2021/05/14 07:38:32;;;;;;;;;;;;;;;15.71;60.72;100125.84;5032107;27;98738;-74
2021/05/14 07:40:58;;;;;;;;;;;;;;;15.56;61.60;100118.88;5033347;27;96783;-75
2021/05/14 07:43:24;;;;;;;;;;;;;;;15.82;60.47;100128.63;5031214;27;97094;-74
2021/05/14 07:45:50;;;;;;;;;;;;;;;15.62;61.28;100127.28;5031510;28;98794;-73
2021/05/14 07:48:20;;;;;;;;;;;;;;;15.86;60.33;100128.34;5026820;27;98903;-74
2021/05/14 07:50:46;;;;;;;;;;;;;;;16.12;59.46;100137.25;5024218;27;97101;-73
2021/05/14 07:53:14;;;;;;;;;;;;;;;15.50;61.52;100130.72;5034224;27;96974;-73
2021/05/14 07:55:41;;;;;;;;;;;;;;;16.12;59.59;100136.38;5034484;28;99030;-73
2021/05/14 07:58:07;;;;;;;;;;;;;;;16.12;59.31;100145.25;5035326;27;98903;-73
2021/05/14 08:00:33;;;;;;;;;;;;;;;16.23;59.27;100141.84;5036436;27;96808;-74
2021/05/14 08:02:59;;;;;;;;;;;;;;;16.21;59.15;100141.94;5020649;27;100884;-73
2021/05/14 08:05:24;;;;;;;;;;;;;;;16.07;59.60;100149.19;5030089;28;98902;-74
2021/05/14 08:08:06;;;;;;;;;;;;;;;15.98;59.86;100147.97;5031086;27;101373;-75
2021/05/14 08:10:32;;;;;;;;;;;;;;;16.08;59.21;100150.88;5027876;27;98858;-73
2021/05/14 08:12:59;;;;;;;;;;;;;;;16.12;59.95;100145.25;5034059;28;96822;-74
2021/05/14 08:15:25;;;;;;;;;;;;;;;16.32;59.11;100152.75;5034470;27;101319;-73
2021/05/14 08:17:51;;;;;;;;;;;;;;;15.98;59.76;100147.13;5036217;27;98898;-75
2021/05/14 08:20:18;;;;;;;;;;;;;;;16.32;58.98;100152.75;5036740;27;96811;-73
2021/05/14 08:22:44;;;;;;;;;;;;;;;15.69;61.02;100151.72;5036804;27;96871;-74
2021/05/14 08:25:10;;;;;;;;;;;;;;;16.18;59.92;100143.97;5035535;27;98836;-73
2021/05/14 08:27:36;;;;;;;;;;;;;;;16.17;60.02;100148.44;5034508;27;99001;-73
2021/05/14 08:30:03;;;;;;;;;;;;;;;16.27;59.44;100148.69;5034903;27;96825;-74
2021/05/14 08:32:29;;;;;;;;;;;;;;;16.02;60.21;100149.47;5031467;27;96856;-74
2021/05/14 08:34:55;;;;;;;;;;;;;;;16.42;59.31;100157.41;5028253;27;99261;-74
2021/05/14 08:37:21;;;;;;;;;;;;;;;16.41;59.42;100159.22;5031192;27;99283;-73
2021/05/14 08:39:47;;;;;;;;;;;;;;;16.59;59.22;100157.13;5031948;28;97152;-73
2021/05/14 08:42:13;;;;;;;;;;;;;;;16.45;59.91;100162.56;5032010;27;97050;-73
2021/05/14 08:44:40;;;;;;;;;;;;;;;16.06;61.07;100158.97;5027239;27;100525;-74
2021/05/14 08:47:07;;;;;;;;;;;;;;;16.45;59.65;100167.88;5030236;27;98855;-75
2021/05/14 08:49:48;;;;;;;;;;;;;;;;;;;;;
2021/05/14 08:52:16;;;;;;;;;;;;;;;16.48;60.25;100168.53;5031131;27;114842;-74
2021/05/14 08:54:43;;;;;;;;;;;;;;;16.52;59.32;100172.69;5027182;27;97757;-76
2021/05/14 08:57:10;;;;;;;;;;;;;;;15.93;60.64;100172.28;5031527;27;100348;-73
2021/05/14 08:59:35;;;;;;;;;;;;;;;15.74;61.83;100178.91;5034961;28;96815;-74
2021/05/14 09:02:01;;;;;;;;;;;;;;;15.45;62.52;100181.63;5032126;27;97073;-75
2021/05/14 09:04:30;;;;;;;;;;;;;;;15.87;61.06;100180.69;5029688;27;97699;-76
2021/05/14 09:06:56;;;;;;;;;;;;;;;16.35;59.40;100192.50;5033206;27;98836;-73
2021/05/14 09:09:22;;;;;;;;;;;;;;;15.13;61.56;100189.00;5033399;27;98715;-74
2021/05/14 09:11:49;;;;;;;;;;;;;;;15.51;59.79;100191.03;5034196;27;96955;-75
2021/05/14 09:14:31;;;;;;;;;;;;;;;15.99;58.49;100192.31;5032848;27;99334;-75
2021/05/14 09:16:57;;;;;;;;;;;;;;;16.32;57.95;100202.53;5030165;27;101135;-74
2021/05/14 09:19:31;;;;;;;;;;;;;;;16.57;57.93;100205.25;5037676;27;96849;-74
2021/05/14 09:22:06;;;;;;;;;;;;;;;16.66;57.56;100209.97;5033561;27;97054;-74
2021/05/14 09:24:32;;;;;;;;;;;;;;;16.34;58.54;100205.97;5029689;27;98944;-74
2021/05/14 09:26:58;;;;;;;;;;;;;;;16.06;58.94;100204.28;5033622;28;98776;-75
2021/05/14 09:29:36;;;;;;;;;;;;;;;15.76;59.26;100212.47;5036855;27;97578;-75
2021/05/14 09:32:16;;;;;;;;;;;;;;;16.12;58.75;100214.53;5034042;27;96840;-75
2021/05/14 09:34:46;;;;;;;;;;;;;;;16.31;58.21;100220.34;5033189;27;98890;-74
2021/05/14 09:37:14;;;;;;;;;;;;;;;16.18;57.54;100219.47;5032018;27;98944;-74
2021/05/14 09:39:40;;;;;;;;;;;;;;;16.06;57.51;100222.09;5032761;27;97198;-74
2021/05/14 09:42:05;;;;;;;;;;;;;;;16.38;56.92;100218.13;5033911;28;96840;-73
2021/05/14 09:44:31;;;;;;;;;;;;;;;15.89;56.46;100223.19;5032468;27;99429;-74
2021/05/14 09:46:58;;;;;;;;;;;;;;;16.12;56.00;100219.88;5032160;27;99445;-74
2021/05/14 09:49:24;;;;;;;;;;;;;;;15.66;56.86;100218.50;5025659;28;96887;-75
2021/05/14 09:51:55;;;;;;;;;;;;;;;15.21;56.94;100220.47;5021844;27;97368;-74
2021/05/14 09:54:25;;;;;;;;;;;;;;;14.84;57.75;100213.03;5032024;27;99253;-75
2021/05/14 09:57:30;;;;;;;;;;;;;;;14.75;58.35;100225.09;5033012;28;100111;-75
2021/05/14 09:59:56;;;;;;;;;;;;;;;15.01;57.46;100220.84;5028735;27;96758;-75
2021/05/14 10:02:23;;;;;;;;;;;;;;;15.66;55.88;100223.84;5033081;28;97113;-75
2021/05/14 10:04:49;;;;;;;;;;;;;;;15.30;56.21;100232.31;5027507;27;99309;-75
2021/05/14 10:07:16;;;;;;;;;;;;;;;16.15;55.24;100224.97;5025318;27;100517;-73
2021/05/14 10:09:42;;;;;;;;;;;;;;;16.27;54.21;100224.19;5024982;27;96944;-74
2021/05/14 10:12:09;;;;;;;;;;;;;;;16.16;55.04;100226.69;5034327;27;96895;-73
2021/05/14 10:14:38;;;;;;;;;;;;;;;16.04;54.82;100235.50;5020346;27;99069;-74
2021/05/14 10:17:03;;;;;;;;;;;;;;;15.58;55.48;100234.13;5033052;27;98890;-74
2021/05/14 10:19:30;;;;;;;;;;;;;;;14.92;56.15;100237.38;5034088;27;97497;-74
2021/05/14 10:21:56;;;;;;;;;;;;;;;15.48;55.21;100232.03;5031562;27;96885;-74
2021/05/14 10:24:36;;;;;;;;;;;;;;;15.37;54.39;100242.47;5030070;27;99083;-74
2021/05/14 10:27:13;;;;;;;;;;;;;;;16.06;54.06;100235.41;5027894;28;97190;-75
2021/05/14 10:29:41;;;;;;;;;;;;;;;15.15;55.16;100243.00;5032738;27;96914;-75
2021/05/14 10:32:07;;;;;;;;;;;;;;;15.55;53.60;100243.19;5033245;27;96881;-74
2021/05/14 10:34:33;;;;;;;;;;;;;;;15.54;54.52;100246.78;5033038;28;98930;-74
2021/05/14 10:36:59;;;;;;;;;;;;;;;15.62;53.26;100238.31;5031330;27;99280;-75
2021/05/14 10:39:32;;;;;;;;;;;;;;;14.98;54.78;100234.31;5024357;28;97328;-74
2021/05/14 10:42:01;;;;;;;;;;;;;;;15.46;53.56;100243.72;5030912;28;97006;-74
2021/05/14 10:44:49;;;;;;;;;;;;;;;15.49;53.27;100247.03;5029466;27;98972;-75
2021/05/14 10:47:32;;;;;;;;;;;;;;;15.02;54.02;100238.53;5021924;27;98995;-74
2021/05/14 10:50:02;;;;;;;;;;;;;;;15.25;53.63;100240.59;5029416;28;98225;-75
2021/05/14 10:52:30;;;;;;;;;;;;;;;16.39;52.10;100229.63;5030369;27;97066;-74
2021/05/14 10:54:56;;;;;;;;;;;;;;;16.91;49.29;100240.28;5032286;27;99383;-74
2021/05/14 10:57:40;;;;;;;;;;;;;;;17.39;48.93;100244.00;5031635;27;99128;-74
2021/05/14 11:00:21;;;;;;;;;;;;;;;17.33;49.41;100233.72;5038007;27;97010;-75
2021/05/14 11:03:07;;;;;;;;;;;;;;;17.59;47.70;100240.72;5032729;28;97079;-74
2021/05/14 11:05:33;;;;;;;;;;;;;;;17.34;48.84;100240.78;5026234;27;99176;-74
2021/05/14 11:07:59;;;;;;;;;;;;;;;17.14;48.71;100243.03;5032592;27;98800;-74
2021/05/14 11:10:29;;;;;;;;;;;;;;;18.18;46.29;100243.56;5035479;27;97256;-74
2021/05/14 11:12:55;;;;;;;;;;;;;;;17.61;47.57;100249.53;5030540;27;97188;-74
2021/05/14 11:15:34;;;;;;;;;;;;;;;17.17;48.76;100246.47;5030962;28;98884;-73
2021/05/14 11:18:20;;;;;;;;;;;;;;;17.77;47.18;100252.78;5032837;27;99797;-74
2021/05/14 11:20:48;;;;;;;;;;;;;;;17.47;47.25;100250.47;5028472;27;97273;-74
2021/05/14 11:23:29;;;;;;;;;;;;;;;18.53;44.81;100256.91;5029424;27;98901;-74
2021/05/14 11:25:55;;;;;;;;;;;;;;;18.79;44.56;100254.94;5032881;27;99172;-74
2021/05/14 11:28:36;;;;;;;;;;;;;;;17.62;47.41;100255.72;5028829;27;98915;-73
2021/05/14 11:31:02;;;;;;;;;;;;;;;18.03;46.30;100256.22;5035565;28;96799;-74
2021/05/14 11:33:27;;;;;;;;;;;;;;;18.19;45.75;100263.94;5038331;27;97356;-74
2021/05/14 11:35:54;;;;;;;;;;;;;;;18.07;46.28;100267.53;5036142;27;99014;-74
2021/05/14 11:38:20;;;;;;;;;;;;;;;17.18;48.85;100266.88;5033191;27;98961;-73
2021/05/14 11:40:49;;;;;;;;;;;;;;;17.72;47.62;100275.47;5035870;27;97362;-74
2021/05/14 11:43:16;;;;;;;;;;;;;;;17.06;49.78;100277.47;5030895;27;98511;-75
2021/05/14 11:45:45;;;;;;;;;;;;;;;17.00;50.47;100275.19;5026029;27;98831;-74
2021/05/14 11:48:13;;;;;;;;;;;;;;;15.73;53.43;100281.09;5025069;27;98836;-73
2021/05/14 11:50:40;;;;;;;;;;;;;;;16.22;52.52;100284.06;5022381;27;96913;-73
2021/05/14 11:53:07;;;;;;;;;;;;;;;16.78;51.07;100288.31;5023459;27;97350;-75
2021/05/14 11:55:33;;;;;;;;;;;;;;;17.03;50.58;100287.47;5028258;27;98900;-73
2021/05/14 11:57:59;;;;;;;;;;;;;;;16.59;51.59;100291.34;5028575;28;98870;-74
2021/05/14 12:00:27;;;;;;;;;;;;;;;16.40;52.19;100290.00;5033611;28;96890;-73
2021/05/14 12:02:53;;;;;;;;;;;;;;;16.72;51.28;100286.06;5027521;27;97594;-73
2021/05/14 12:05:20;;;;;;;;;;;;;;;16.64;51.08;100281.25;5030822;28;99049;-75
2021/05/14 12:07:46;;;;;;;;;;;;;;;16.93;50.95;100279.28;5033744;27;100714;-75
2021/05/14 12:10:14;;;;;;;;;;;;;;;17.59;49.48;100293.31;5028087;28;96897;-74
2021/05/14 12:12:41;;;;;;;;;;;;;;;17.41;49.47;100292.78;5028746;28;98202;-74
2021/05/14 12:15:25;;;;;;;;;;;;;;;17.19;50.34;100297.97;5027406;27;98915;-75
2021/05/14 12:17:57;;;;;;;;;;;;;;;17.14;50.59;100293.78;5030739;27;98968;-75
2021/05/14 12:20:30;;;;;;;;;;;;;;;17.38;50.11;100295.69;5033982;28;96849;-73
2021/05/14 12:22:56;;;;;;;;;;;;;;;16.65;52.19;100298.09;5028796;28;97251;-74
2021/05/14 12:25:23;;;;;;;;;;;;;;;16.53;52.29;100302.44;5033017;27;98937;-74
2021/05/14 12:27:49;;;;;;;;;;;;;;;16.40;52.66;100303.34;5029682;28;99326;-74
2021/05/14 12:30:17;;;;;;;;;;;;;;;16.64;52.01;100296.41;5032879;27;97283;-74
2021/05/14 12:32:53;;;;;;;;;;;;;;;16.71;51.56;100301.22;5031348;27;97059;-73
2021/05/14 12:35:21;;;;;;;;;;;;;;;16.89;51.04;100296.44;5029666;28;99364;-75
2021/05/14 12:37:51;;;;;;;;;;;;;;;17.16;49.97;100300.81;5030764;28;98804;-74
2021/05/14 12:40:21;;;;;;;;;;;;;;;16.76;50.66;100298.22;5033766;27;96910;-74
2021/05/14 12:42:48;;;;;;;;;;;;;;;17.18;49.64;100312.25;5034001;28;96917;-74